Latest Weather Observations for Noarlunga

IDS60901

Issued at 9:21 pm CDT Saturday 10 December 2016 (issued every 10 minutes, with the page automatically refreshed every 10 minutes)

About weather observations | Map of Adelaide area stations | Latest observations for Adelaide area | Other Formats
Station Details ID: 023885 Name: NOARLUNGA Lat: -35.16 Lon: 138.51 Height: 55.0 m
Data from the previous 72 hours. | See also: Recent months at Noarlunga
Date/Time
CDT
Temp
°C
App
Temp
°C
Dew
Point
°C
Rel
Hum
%
Delta-T
°C
Wind Press
QNH
hPa
Press
MSL
hPa
Rain since
9am
mm
Dir  Spd
km/h
Gust
km/h
Spd
kts
Gust
kts
10/09:00pm 14.6 9.3 8.5 67 3.1 SE 26 39 14 21 - - 0.0
10/08:30pm 15.1 10.2 8.3 64 3.4 ESE 24 33 13 18 - - 0.0
10/08:00pm 16.2 10.9 8.4 60 4.0 SE 26 39 14 21 - - 0.0
10/07:30pm 17.5 13.1 8.9 57 4.5 SE 22 32 12 17 - - 0.0
10/07:00pm 18.2 12.6 8.7 54 4.9 SE 28 35 15 19 - - 0.0
10/06:30pm 19.4 14.6 9.0 51 5.5 SE 24 33 13 18 - - 0.0
10/06:00pm 20.5 16.1 9.1 48 6.0 SSE 22 30 12 16 - - 0.0
10/05:30pm 21.8 19.3 9.7 46 6.5 SW 13 22 7 12 - - 0.0
10/05:00pm 22.2 19.2 7.6 39 7.6 SW 13 20 7 11 - - 0.0
10/04:30pm 21.5 19.3 7.7 41 7.2 SW 9 17 5 9 - - 0.0
10/04:00pm 21.2 18.1 7.1 40 7.2 SW 13 17 7 9 - - 0.0
10/03:30pm 20.9 18.0 6.4 39 7.3 WSW 11 19 6 10 - - 0.0
10/03:00pm 20.6 17.8 6.9 41 7.0 SW 11 20 6 11 - - 0.0
10/02:30pm 21.4 18.9 8.3 43 6.9 SW 11 17 6 9 - - 0.0
10/02:00pm 21.2 18.2 7.8 42 7.0 WSW 13 19 7 10 - - 0.0
10/01:30pm 20.5 17.6 6.5 40 7.1 W 11 17 6 9 - - 0.0
10/01:00pm 20.1 17.1 6.1 40 7.0 W 11 17 6 9 - - 0.0
10/12:30pm 19.9 17.1 7.0 43 6.6 WNW 11 17 6 9 - - 0.0
10/12:00pm 19.5 16.7 6.9 44 6.4 W 11 20 6 11 - - 0.0
10/11:30am 19.0 16.6 6.8 45 6.1 WNW 9 15 5 8 - - 0.0
10/11:00am 18.9 16.2 7.4 47 5.8 W 11 17 6 9 - - 0.0
10/10:30am 18.8 15.7 7.3 47 5.8 WNW 13 19 7 10 - - 0.0
10/10:00am 18.5 17.0 6.7 46 5.9 N 4 7 2 4 - - 0.0
10/09:30am 17.8 15.5 5.7 45 5.9 E 7 13 4 7 - - 0.0
10/09:00am 16.4 12.7 6.5 52 4.9 ENE 15 20 8 11 - - 0.0
10/08:30am 15.3 11.7 6.8 57 4.2 E 15 24 8 13 - - 0.0
10/08:00am 14.5 11.0 7.1 61 3.6 E 15 20 8 11 - - 0.0
10/07:30am 13.3 9.4 6.9 65 3.1 E 17 28 9 15 - - 0.0
10/07:00am 12.5 8.9 6.8 68 2.7 ENE 15 24 8 13 - - 0.0
10/06:30am 11.8 8.2 6.7 71 2.4 E 15 26 8 14 - - 0.0
10/06:00am 11.4 7.7 6.3 71 2.4 E 15 22 8 12 - - 0.0
10/05:30am 10.8 7.9 6.7 76 1.9 E 11 17 6 9 - - 0.0
10/05:00am 10.7 8.2 6.6 76 1.9 E 9 15 5 8 - - 0.0
10/04:30am 10.7 8.2 6.6 76 1.9 E 9 15 5 8 - - 0.0
10/04:00am 10.9 8.4 6.5 74 2.1 ESE 9 15 5 8 - - 0.0
10/03:30am 10.8 8.3 6.4 74 2.1 E 9 13 5 7 - - 0.0
10/03:00am 10.8 8.7 6.6 75 2.0 ESE 7 13 4 7 - - 0.0
10/02:30am 11.2 9.3 6.5 73 2.2 E 6 11 3 6 - - 0.0
10/02:00am 11.5 8.6 6.6 72 2.3 ESE 11 19 6 10 - - 0.0
10/01:30am 10.9 8.7 6.3 73 2.2 SE 7 13 4 7 - - 0.0
10/01:00am 11.3 8.3 6.0 70 2.5 ESE 11 15 6 8 - - 0.0
10/12:30am 11.0 8.9 6.0 71 2.3 ESE 6 6 3 3 - - 0.0
10/12:00am 11.3 9.6 6.0 70 2.5 ESE 4 7 2 4 - - 0.0
 
Date/Time
CDT
Temp
°C
App
Temp
°C
Dew
Point
°C
Rel
Hum
%
Delta-T
°C
Wind Press
QNH
hPa
Press
MSL
hPa
Rain since
9am
mm
Dir  Spd
km/h
Gust
km/h
Spd
kts
Gust
kts
09/11:30pm 11.4 9.2 6.1 70 2.5 SE 7 11 4 6 - - 0.0
09/11:00pm 11.7 9.5 6.2 69 2.6 SE 7 9 4 5 - - 0.0
09/10:30pm 11.8 9.2 6.1 68 2.7 ESE 9 15 5 8 - - 0.0
09/10:00pm 12.3 9.3 5.9 65 3.0 SE 11 17 6 9 - - 0.0
09/09:30pm 12.6 9.6 5.8 63 3.2 SE 11 15 6 8 - - 0.0
09/09:00pm 12.9 9.5 5.8 62 3.3 SE 13 19 7 10 - - 0.0
09/08:30pm 13.5 9.7 5.9 60 3.6 SE 15 22 8 12 - - 0.0
09/08:00pm 14.2 9.4 5.6 56 4.1 SSE 20 28 11 15 - - 0.0
09/07:30pm 15.2 10.6 5.7 53 4.5 SSE 19 26 10 14 - - 0.0
09/07:00pm 15.8 10.7 6.0 52 4.7 SSE 22 30 12 16 - - 0.0
09/06:30pm 17.0 12.3 5.9 48 5.4 SSE 20 30 11 16 - - 0.0
09/06:00pm 18.0 13.3 6.2 46 5.8 SSE 20 30 11 16 - - 0.0
09/05:30pm 18.6 13.8 5.8 43 6.3 S 20 30 11 16 - - 0.0
09/05:00pm 19.1 15.2 5.2 40 6.8 SSE 15 24 8 13 - - 0.0
09/04:30pm 19.4 14.8 5.5 40 6.8 SSE 19 28 10 15 - - 0.0
09/04:00pm 19.3 14.5 7.4 46 6.1 WSW 22 35 12 19 - - 0.0
09/03:30pm 19.0 14.5 6.8 45 6.1 SW 20 33 11 18 - - 0.0
09/03:00pm 18.3 13.0 6.8 47 5.8 SW 24 39 13 21 - - 0.0
09/02:30pm 19.1 13.8 6.6 44 6.3 SW 24 35 13 19 - - 0.0
09/02:00pm 18.6 13.8 5.5 42 6.4 SW 20 32 11 17 - - 0.0
09/01:30pm 17.8 13.0 5.4 44 6.0 SW 20 39 11 21 - - 0.0
09/01:00pm 17.2 12.6 6.7 50 5.2 WSW 20 32 11 17 - - 0.0
09/12:30pm 17.7 13.7 5.0 43 6.1 WSW 15 22 8 12 - - 0.0
09/12:00pm 17.1 13.0 4.4 43 6.0 WSW 15 24 8 13 - - 0.0
09/11:30am 16.8 13.0 3.8 42 6.1 SW 13 20 7 11 - - 0.0
09/11:00am 17.9 14.3 4.8 42 6.3 SSE 13 19 7 10 - - 0.0
09/10:30am 15.8 12.8 4.2 46 5.4 S 9 20 5 11 - - 0.0
09/10:00am 15.1 11.6 5.6 53 4.5 S 13 20 7 11 - - 0.0
09/09:30am 14.6 10.0 5.4 54 4.4 S 19 28 10 15 - - 0.0
09/09:00am 15.1 11.4 4.5 49 4.9 SSW 13 20 7 11 - - 1.8
09/08:30am 14.4 10.6 3.8 49 4.8 SSW 13 20 7 11 - - 1.8
09/08:00am 13.8 10.9 4.4 53 4.3 S 9 15 5 8 - - 1.8
09/07:30am 13.9 10.2 4.2 52 4.5 S 13 20 7 11 - - 1.8
09/07:00am 13.3 10.3 3.9 53 4.3 S 9 13 5 7 - - 1.8
09/06:30am 12.1 9.5 4.1 58 3.6 S 7 11 4 6 - - 1.8
09/06:00am 11.0 8.6 4.5 64 2.9 SSE 6 9 3 5 - - 1.8
09/05:30am 11.4 8.0 3.9 60 3.3 S 11 15 6 8 - - 1.8
09/05:00am 11.9 9.2 3.9 58 3.6 S 7 13 4 7 - - 1.8
09/04:30am 12.0 9.6 4.2 59 3.5 S 6 7 3 4 - - 1.8
09/04:00am 12.4 9.7 3.9 56 3.8 S 7 11 4 6 - - 1.8
09/03:30am 12.7 9.3 4.2 56 3.9 S 11 20 6 11 - - 1.8
09/03:00am 13.2 10.0 4.9 57 3.8 SSW 11 19 6 10 - - 1.8
09/02:30am 12.9 10.0 4.6 57 3.8 SSW 9 17 5 9 - - 1.8
09/02:00am 12.8 8.7 4.5 57 3.8 SSW 15 26 8 14 - - 1.8
09/01:30am 12.9 10.1 5.3 60 3.5 S 9 15 5 8 - - 1.8
09/01:00am 12.9 10.2 5.6 61 3.4 S 9 13 5 7 - - 1.8
09/12:30am 12.8 8.9 5.2 60 3.5 SSW 15 22 8 12 - - 1.8
09/12:00am 13.1 9.9 6.7 65 3.1 S 13 19 7 10 - - 1.8
 
Date/Time
CDT
Temp
°C
App
Temp
°C
Dew
Point
°C
Rel
Hum
%
Delta-T
°C
Wind Press
QNH
hPa
Press
MSL
hPa
Rain since
9am
mm
Dir  Spd
km/h
Gust
km/h
Spd
kts
Gust
kts
08/11:30pm 13.4 9.6 7.4 67 2.9 SSW 17 22 9 12 - - 1.8
08/11:00pm 13.5 10.4 7.1 65 3.1 SSW 13 24 7 13 - - 1.8
08/10:30pm 13.8 9.9 7.1 64 3.3 SSW 17 35 9 19 - - 1.8
08/10:00pm 14.3 10.0 7.1 62 3.5 SSW 19 32 10 17 - - 1.8
08/09:30pm 14.4 9.6 7.2 62 3.5 SW 22 35 12 19 - - 1.8
08/09:00pm 14.9 9.9 6.5 57 4.1 SW 22 39 12 21 - - 1.8
08/08:30pm 15.3 10.1 7.1 58 4.0 SW 24 37 13 20 - - 1.8
08/08:00pm 15.6 11.1 7.1 57 4.2 SW 20 32 11 17 - - 1.8
08/07:30pm 16.3 11.0 6.7 53 4.7 SW 24 37 13 20 - - 1.8
08/07:00pm 16.5 10.5 6.9 53 4.8 SW 28 44 15 24 - - 1.8
08/06:30pm 17.1 11.6 7.7 54 4.8 SW 26 41 14 22 - - 1.8
08/06:00pm 16.4 11.4 8.1 58 4.2 SW 24 41 13 22 - - 1.8
08/05:30pm 16.8 12.3 8.5 58 4.3 WSW 22 37 12 20 - - 1.8
08/05:00pm 18.2 14.3 10.8 62 4.0 W 22 41 12 22 - - 1.8
08/04:30pm 16.7 12.4 9.4 62 3.8 WSW 22 37 12 20 - - 1.8
08/04:00pm 15.7 11.4 10.9 73 2.6 W 24 39 13 21 - - 1.8
08/03:30pm 15.3 12.2 11.5 78 2.0 WSW 19 32 10 17 - - 1.8
08/03:00pm 18.5 13.3 9.0 54 5.0 W 26 43 14 23 - - 0.0
08/02:30pm 18.1 13.1 11.0 63 3.8 W 28 44 15 24 - - 0.0
08/02:02pm 16.9 11.4 9.1 60 4.0 W 28 54 15 29 - - 0.0
08/02:00pm 17.4 12.0 8.0 54 4.8 W 26 43 14 23 - - 0.0
08/01:30pm 17.6 12.2 7.9 53 4.9 WSW 26 41 14 22 - - 0.0
08/01:00pm 18.7 12.4 8.9 53 5.1 W 32 56 17 30 - - 0.0
08/12:33pm 18.5 12.1 8.5 52 5.2 W 32 52 17 28 - - 0.0
08/12:30pm 18.6 12.6 8.6 52 5.2 W 30 44 16 24 - - 0.0
08/12:00pm 18.1 11.6 8.9 55 4.8 W 33 54 18 29 - - 0.0
08/11:30am 18.2 12.0 9.5 57 4.6 W 32 57 17 31 - - 0.0
08/11:14am 18.1 12.5 10.2 60 4.2 W 30 50 16 27 - - 0.0
08/11:00am 17.2 10.9 8.9 58 4.3 W 32 48 17 26 - - 0.0
08/10:30am 17.1 10.8 8.8 58 4.3 W 32 50 17 27 - - 0.0
08/10:00am 17.5 11.3 7.8 53 4.9 W 30 48 16 26 - - 0.0
08/09:30am 16.8 10.5 7.2 53 4.8 W 30 48 16 26 - - 0.0
08/09:04am 16.3 10.1 7.8 57 4.3 W 30 48 16 26 - - 0.0
08/09:00am 16.7 10.1 7.9 56 4.5 W 32 48 17 26 - - 7.0
08/08:30am 16.4 9.7 7.3 55 4.5 WSW 32 44 17 24 - - 7.0
08/08:00am 16.3 9.6 7.3 55 4.5 W 32 52 17 28 - - 7.0
08/07:47am 16.0 10.0 7.2 56 4.4 W 28 50 15 27 - - 7.0
08/07:30am 15.5 9.4 8.3 62 3.6 W 30 44 16 24 - - 7.0
08/07:00am 15.7 9.5 7.7 59 4.0 W 30 43 16 23 - - 7.0
08/06:30am 15.6 10.6 8.1 61 3.8 W 24 44 13 24 - - 7.0
08/06:05am 15.1 9.4 8.3 64 3.4 W 28 50 15 27 - - 7.0
08/06:00am 15.2 10.1 9.1 67 3.1 W 26 43 14 23 - - 7.0
08/05:30am 15.4 10.6 8.9 65 3.3 W 24 39 13 21 - - 7.0
08/05:00am 15.4 10.6 8.9 65 3.3 W 24 44 13 24 - - 7.0
08/04:31am 15.9 10.5 9.6 66 3.3 W 28 46 15 25 - - 7.0
08/04:30am 15.9 10.1 9.6 66 3.3 W 30 46 16 25 - - 7.0
08/04:00am 16.3 10.6 11.2 72 2.7 W 32 54 17 29 - - 7.0
08/03:45am 16.9 11.6 12.6 76 2.4 W 32 52 17 28 - - 6.8
08/03:30am 16.9 14.4 14.0 83 1.7 W 20 39 11 21 - - 6.8
08/03:09am 17.4 12.8 13.5 78 2.2 W 30 48 16 26 - - 6.8
08/03:00am 17.5 13.4 13.8 79 2.1 W 28 46 15 25 - - 6.8
08/02:30am 17.9 14.1 14.8 82 1.8 W 28 46 15 25 - - 6.8
08/02:27am 17.9 14.1 14.8 82 1.8 W 28 46 15 25 - - 6.8
08/02:00am 18.8 15.8 14.7 77 2.4 W 24 41 13 22 - - 6.8
08/01:30am 20.1 17.8 17.7 86 1.5 NW 26 43 14 23 - - 6.8
08/01:20am 20.4 17.7 17.6 84 1.7 NNW 28 52 15 28 - - 6.6
08/01:00am 20.0 17.3 17.6 86 1.5 NW 28 44 15 24 - - 6.6
08/12:44am 20.0 17.3 17.6 86 1.5 NW 28 46 15 25 - - 6.0
08/12:30am 20.1 19.7 17.1 83 1.8 NNW 15 24 8 13 - - 3.2
08/12:00am 21.0 16.7 16.8 77 2.6 NW 35 61 19 33 - - 2.6
 
Date/Time
CDT
Temp
°C
App
Temp
°C
Dew
Point
°C
Rel
Hum
%
Delta-T
°C
Wind Press
QNH
hPa
Press
MSL
hPa
Rain since
9am
mm
Dir  Spd
km/h
Gust
km/h
Spd
kts
Gust
kts
07/11:52pm 22.5 19.7 16.3 68 3.8 N 26 50 14 27 - - 1.8
07/11:30pm 24.1 21.6 15.1 57 5.4 NE 22 33 12 18 - - 0.0
07/11:00pm 24.2 21.2 14.9 56 5.6 NNE 24 35 13 19 - - 0.0
07/10:30pm 24.0 20.7 15.0 57 5.4 N 26 46 14 25 - - 0.0
07/10:14pm 25.4 21.8 14.2 50 6.7 NW 26 61 14 33 - - 0.0
07/10:00pm 28.4 25.8 13.1 39 9.0 NNW 19 57 10 31 - - 0.0
07/09:30pm 27.4 25.9 13.0 41 8.5 NNE 13 17 7 9 - - 0.0

Latest Capital City Observations: Canberra | Sydney | Melbourne | Brisbane | Adelaide | Perth | Hobart | Darwin

Other Formats:

Comma delimited format used in spreadsheet applications
http://www.bom.gov.au/fwo/IDS60901/IDS60901.94808.axf

JavaScript Object Notation format (JSON) in row-major order
http://www.bom.gov.au/fwo/IDS60901/IDS60901.94808.json